Time;durP1;ratioP1;P1;durP2;ratioP2;P2;SDS_P1;SDS_P2;PMS_P1;PMS_P2;Temp;Humidity;BMP_temperature;BMP_pressure;BME280_temperature;BME280_humidity;BME280_pressure;Samples;Min_cycle;Max_cycle;Signal;HPM_P1;HPM_P2
2023/07/13 04:03:13;;;;;;;1.60;1.50;;;18.80;93.00;;;;;;4915237;29;21016;-88
2023/07/13 04:05:40;;;;;;;8.73;2.80;;;18.80;93.30;;;;;;4930508;29;20433;-88
2023/07/13 04:08:06;;;;;;;2.17;1.40;;;18.80;93.20;;;;;;4919039;29;20185;-88
2023/07/13 04:10:35;;;;;;;3.60;2.30;;;18.80;93.50;;;;;;4914842;29;20833;-85
2023/07/13 04:13:06;;;;;;;1.90;1.80;;;18.80;93.60;;;;;;4925319;29;20219;-88
2023/07/13 04:15:35;;;;;;;2.40;1.83;;;18.80;93.80;;;;;;4944466;29;20455;-85
2023/07/13 04:18:02;;;;;;;1.40;1.30;;;18.80;94.20;;;;;;4926668;29;20428;-87
2023/07/13 04:20:28;;;;;;;1.50;1.40;;;18.80;94.00;;;;;;4913095;29;20424;-89
2023/07/13 04:22:57;;;;;;;7.30;2.13;;;18.80;93.80;;;;;;4923092;29;20456;-87
2023/07/13 04:25:23;;;;;;;1.40;1.30;;;18.80;93.90;;;;;;4911778;29;20176;-89
2023/07/13 04:27:48;;;;;;;1.90;1.80;;;18.80;93.80;;;;;;4912913;29;20560;-88
2023/07/13 04:30:16;;;;;;;2.20;1.57;;;18.80;93.70;;;;;;4925212;29;20252;-88
2023/07/13 04:32:42;;;;;;;1.70;1.60;;;18.80;94.10;;;;;;4916485;29;20640;-88
2023/07/13 04:35:08;;;;;;;2.57;2.40;;;18.90;94.30;;;;;;4929500;29;20443;-88
2023/07/13 04:37:35;;;;;;;1.73;1.70;;;18.80;94.50;;;;;;4931827;29;20962;-87
2023/07/13 04:40:03;;;;;;;3.63;1.53;;;18.80;94.70;;;;;;4906305;29;20184;-88
2023/07/13 04:42:28;;;;;;;1.90;1.80;;;18.80;95.00;;;;;;4931189;29;20468;-88
2023/07/13 04:44:56;;;;;;;2.80;1.70;;;18.80;95.30;;;;;;4932104;29;20472;-88
2023/07/13 04:47:22;;;;;;;2.00;1.90;;;18.80;95.30;;;;;;4926231;29;20180;-88
2023/07/13 04:49:47;;;;;;;2.70;1.43;;;18.80;95.50;;;;;;4934430;29;20470;-88
2023/07/13 04:52:15;;;;;;;1.70;1.57;;;18.80;95.70;;;;;;4933858;29;20211;-89
2023/07/13 04:54:42;;;;;;;7.10;2.50;;;18.80;95.40;;;;;;4933893;29;20192;-88
2023/07/13 04:57:07;;;;;;;2.43;1.43;;;18.80;95.10;;;;;;4919167;29;20515;-89
2023/07/13 04:59:34;;;;;;;3.33;1.93;;;18.90;94.70;;;;;;4911622;29;20522;-89
2023/07/13 05:01:59;;;;;;;2.50;1.83;;;18.90;94.70;;;;;;4943498;29;20227;-87
2023/07/13 05:04:25;;;;;;;1.70;1.60;;;19.00;94.60;;;;;;4937364;29;20810;-88
2023/07/13 05:06:52;;;;;;;11.30;2.60;;;19.10;94.60;;;;;;4939157;29;20641;-88
2023/07/13 05:09:22;;;;;;;1.83;1.77;;;19.10;94.50;;;;;;4938349;29;20287;-88
2023/07/13 05:11:47;;;;;;;3.53;2.50;;;19.20;94.40;;;;;;4950744;28;20474;-89
2023/07/13 05:14:15;;;;;;;6.13;2.17;;;19.20;95.30;;;;;;4948665;29;20467;-89
2023/07/13 05:16:45;;;;;;;2.30;2.10;;;19.30;95.50;;;;;;4953957;29;20192;-88
2023/07/13 05:19:17;;;;;;;3.30;2.77;;;19.30;95.30;;;;;;4955940;29;20503;-89
2023/07/13 05:21:45;;;;;;;2.33;2.23;;;19.40;95.50;;;;;;4945581;28;20455;-88
2023/07/13 05:24:18;;;;;;;1.50;1.40;;;19.40;96.00;;;;;;4942650;29;20499;-89
2023/07/13 05:26:47;;;;;;;2.97;2.57;;;19.40;96.20;;;;;;4925021;29;20518;-88
2023/07/13 05:29:15;;;;;;;5.63;2.73;;;19.40;96.30;;;;;;4933490;29;20416;-88
2023/07/13 05:31:49;;;;;;;1.80;1.70;;;19.40;96.50;;;;;;4943102;28;20539;-88
2023/07/13 05:34:17;;;;;;;6.33;2.50;;;19.50;96.40;;;;;;4939582;29;20796;-88
2023/07/13 05:36:45;;;;;;;1.63;1.47;;;19.50;96.30;;;;;;4951122;29;20455;-88
2023/07/13 05:39:15;;;;;;;2.90;1.83;;;19.60;96.30;;;;;;4920142;29;21202;-88
2023/07/13 05:41:41;;;;;;;1.63;1.53;;;19.60;96.30;;;;;;4926542;29;20809;-88
2023/07/13 05:44:06;;;;;;;1.53;1.43;;;19.60;96.20;;;;;;4953761;29;20506;-88
2023/07/13 05:46:33;;;;;;;3.27;2.10;;;19.70;96.00;;;;;;4923762;29;20185;-87
2023/07/13 05:48:59;;;;;;;2.10;1.83;;;19.80;96.00;;;;;;4952148;29;20678;-88
2023/07/13 05:51:27;;;;;;;3.33;2.17;;;19.80;95.90;;;;;;4953610;28;20439;-88
2023/07/13 05:53:55;;;;;;;1.63;1.53;;;19.90;95.70;;;;;;4943755;29;20192;-89
2023/07/13 05:56:25;;;;;;;1.63;1.53;;;19.90;95.50;;;;;;4950853;29;20439;-89
2023/07/13 05:58:56;;;;;;;1.57;1.47;;;20.00;95.20;;;;;;4942837;29;20786;-85
2023/07/13 06:01:23;;;;;;;1.77;1.67;;;20.10;95.10;;;;;;4939907;29;20607;-88
2023/07/13 06:03:48;;;;;;;16.17;2.90;;;20.10;95.00;;;;;;4952163;29;20467;-88
2023/07/13 06:06:16;;;;;;;1.83;1.80;;;20.20;94.90;;;;;;4945568;29;20426;-88
2023/07/13 06:08:49;;;;;;;1.60;1.53;;;20.20;94.60;;;;;;4945276;29;20184;-88
2023/07/13 06:11:27;;;;;;;1.80;1.70;;;20.30;93.90;;;;;;4947157;28;20465;-89
2023/07/13 06:13:55;;;;;;;2.70;1.00;;;20.40;93.30;;;;;;4947992;28;20450;-88
2023/07/13 06:16:28;;;;;;;1.73;1.63;;;20.50;92.20;;;;;;4947478;29;20447;-88
2023/07/13 06:18:57;;;;;;;1.30;1.20;;;20.50;92.40;;;;;;4949760;29;20463;-88
2023/07/13 06:21:25;;;;;;;1.87;1.17;;;20.60;91.50;;;;;;4941941;29;20456;-88
2023/07/13 06:23:59;;;;;;;2.20;2.00;;;20.60;91.30;;;;;;4933322;29;20494;-89
2023/07/13 06:26:27;;;;;;;8.63;1.80;;;20.60;91.30;;;;;;4943070;29;20428;-89
2023/07/13 06:28:55;;;;;;;1.37;1.30;;;20.70;91.10;;;;;;4948710;29;20427;-88
2023/07/13 06:31:25;;;;;;;1.70;1.60;;;20.70;91.20;;;;;;4945315;28;20467;-87
2023/07/13 06:33:58;;;;;;;1.63;1.63;;;20.80;90.90;;;;;;4935889;29;20424;-89
2023/07/13 06:36:24;;;;;;;1.60;1.50;;;20.80;90.80;;;;;;4931373;29;20445;-88
2023/07/13 06:38:50;;;;;;;1.60;1.50;;;20.90;91.00;;;;;;4943036;29;20447;-88
2023/07/13 06:41:15;;;;;;;1.33;1.27;;;20.90;90.40;;;;;;4948181;29;20208;-88
2023/07/13 06:43:43;;;;;;;4.13;1.60;;;21.00;89.70;;;;;;4944294;29;20203;-89
2023/07/13 06:46:17;;;;;;;1.63;1.30;;;21.00;89.00;;;;;;4944223;29;20611;-88
2023/07/13 06:48:45;;;;;;;5.60;2.33;;;21.10;88.70;;;;;;4944075;29;20624;-88
2023/07/13 06:51:15;;;;;;;2.47;1.23;;;21.20;88.00;;;;;;4946579;29;20456;-89
2023/07/13 06:53:46;;;;;;;1.17;1.10;;;21.20;86.60;;;;;;4944090;29;20455;-89
2023/07/13 06:56:19;;;;;;;1.40;1.30;;;21.30;85.60;;;;;;4945887;29;20439;-89
2023/07/13 06:58:47;;;;;;;1.37;1.00;;;21.40;85.20;;;;;;4952436;29;20858;-89
2023/07/13 07:01:15;;;;;;;1.07;1.03;;;21.50;83.30;;;;;;4946827;28;20835;-87
2023/07/13 07:03:46;;;;;;;1.47;1.40;;;21.60;83.50;;;;;;4949385;29;20467;-88
2023/07/13 07:06:23;;;;;;;3.60;1.43;;;21.70;83.90;;;;;;4949478;29;20428;-88
2023/07/13 07:08:49;;;;;;;1.80;1.47;;;21.80;83.90;;;;;;4944136;28;20977;-88
2023/07/13 07:11:17;;;;;;;1.70;1.60;;;21.90;84.30;;;;;;4944293;28;20467;-87
2023/07/13 07:13:43;;;;;;;1.23;1.20;;;22.00;84.00;;;;;;4961609;29;20184;-87
2023/07/13 07:16:09;;;;;;;1.47;1.37;;;22.10;83.80;;;;;;4960950;29;20546;-88
2023/07/13 07:18:34;;;;;;;1.67;1.57;;;22.20;83.70;;;;;;4945278;29;20172;-89
2023/07/13 07:21:00;;;;;;;1.80;1.30;;;22.20;83.40;;;;;;4959622;28;20294;-88
2023/07/13 07:23:26;;;;;;;1.33;1.30;;;22.20;82.80;;;;;;4938921;29;20239;-88
2023/07/13 07:25:51;;;;;;;1.57;1.50;;;22.30;83.20;;;;;;4950995;29;20184;-88
2023/07/13 07:28:18;;;;;;;1.30;1.20;;;22.30;82.90;;;;;;4955464;29;20643;-89
2023/07/13 07:30:47;;;;;;;1.30;1.20;;;22.30;82.40;;;;;;4952580;29;20463;-89
2023/07/13 07:33:13;;;;;;;1.53;1.50;;;22.30;82.70;;;;;;4937634;29;20498;-89
2023/07/13 07:35:39;;;;;;;1.20;1.10;;;22.30;82.00;;;;;;4944913;29;20447;-88
2023/07/13 07:38:04;;;;;;;3.80;1.63;;;22.30;82.30;;;;;;4946332;29;20501;-88
2023/07/13 07:40:31;;;;;;;4.60;1.30;;;22.30;82.40;;;;;;4944675;29;20652;-88
2023/07/13 07:42:56;;;;;;;1.23;1.10;;;22.30;81.50;;;;;;4942391;29;20244;-89
2023/07/13 07:45:22;;;;;;;1.20;1.10;;;22.40;81.00;;;;;;4934775;29;20448;-86
2023/07/13 07:47:47;;;;;;;7.73;1.57;;;22.40;81.20;;;;;;4933283;29;20274;-88
2023/07/13 07:50:16;;;;;;;1.73;1.70;;;22.50;80.60;;;;;;4939679;29;20311;-88
2023/07/13 07:52:44;;;;;;;3.23;1.87;;;22.50;80.70;;;;;;4933326;29;20234;-87
2023/07/13 07:55:09;;;;;;;14.83;1.90;;;22.50;81.40;;;;;;4944396;28;20733;-88
2023/07/13 07:57:37;;;;;;;1.30;1.20;;;22.50;81.10;;;;;;4949014;29;21008;-89
2023/07/13 08:00:05;;;;;;;9.47;1.80;;;22.60;81.50;;;;;;4946603;29;20192;-88
2023/07/13 08:02:36;;;;;;;1.87;1.30;;;22.50;80.70;;;;;;4931885;29;20538;-88
2023/07/13 08:05:25;;;;;;;2.57;2.00;;;22.50;80.40;;;;;;4935685;29;20460;-90
2023/07/13 08:11:18;;;;;;;1.50;1.40;;;22.70;80.20;;;;;;4917065;29;20487;-90
2023/07/13 08:13:46;;;;;;;1.17;1.10;;;22.80;81.30;;;;;;4934588;29;20454;-88
2023/07/13 08:16:37;;;;;;;2.20;1.53;;;23.00;81.90;;;;;;4933949;29;20451;-87
2023/07/13 08:19:06;;;;;;;1.13;1.07;;;23.10;81.30;;;;;;4925593;29;20503;-88
2023/07/13 08:21:39;;;;;;;1.57;1.47;;;23.20;80.00;;;;;;4951033;28;20487;-89
2023/07/13 08:24:08;;;;;;;1.40;1.30;;;23.30;80.40;;;;;;4932609;29;20468;-89
2023/07/13 08:26:36;;;;;;;5.90;1.30;;;23.40;79.70;;;;;;4948626;29;20440;-88
2023/07/13 08:29:05;;;;;;;1.47;1.20;;;23.50;79.70;;;;;;4950866;29;20442;-89
2023/07/13 08:31:38;;;;;;;1.67;1.57;;;23.50;79.60;;;;;;4935457;29;20452;-89
2023/07/13 08:34:06;;;;;;;1.37;1.27;;;23.60;79.80;;;;;;4946895;28;20436;-88
2023/07/13 08:36:37;;;;;;;1.13;1.03;;;23.60;78.60;;;;;;4951442;29;20447;-88
2023/07/13 08:39:06;;;;;;;3.47;1.57;;;23.70;78.00;;;;;;4948925;29;20476;-89
2023/07/13 08:41:38;;;;;;;1.33;1.27;;;23.60;77.60;;;;;;4952233;29;20456;-88
2023/07/13 08:44:18;;;;;;;1.10;1.00;;;23.60;77.40;;;;;;4950542;28;20467;-88
2023/07/13 08:46:45;;;;;;;1.30;1.20;;;23.60;76.70;;;;;;4943938;29;21201;-88
2023/07/13 08:49:16;;;;;;;1.57;1.47;;;23.60;76.80;;;;;;4945041;29;21392;-88
2023/07/13 08:52:00;;;;;;;1.13;1.03;;;23.60;78.40;;;;;;4948798;28;20637;-88
2023/07/13 08:54:49;;;;;;;2.17;1.40;;;23.70;77.80;;;;;;4945569;29;20444;-88
2023/07/13 08:57:18;;;;;;;1.57;1.47;;;23.80;76.80;;;;;;4946976;29;20446;-87
2023/07/13 08:59:44;;;;;;;4.10;1.20;;;23.90;76.80;;;;;;4950127;29;20506;-88
2023/07/13 09:02:34;;;;;;;2.50;1.83;;;24.00;76.90;;;;;;4951770;28;20479;-88
2023/07/13 09:05:16;;;;;;;1.10;1.10;;;24.00;77.20;;;;;;4968014;28;20440;-88
2023/07/13 09:07:45;;;;;;;1.67;1.40;;;24.10;76.70;;;;;;4958133;28;20455;-89
2023/07/13 09:10:20;;;;;;;2.60;1.90;;;24.20;76.20;;;;;;4952848;29;20474;-88
2023/07/13 09:13:04;;;;;;;4.97;1.53;;;24.30;76.20;;;;;;4937646;29;20442;-89
2023/07/13 09:15:43;;;;;;;1.40;1.10;;;24.40;75.80;;;;;;4946813;29;20439;-89
2023/07/13 09:18:35;;;;;;;2.10;1.43;;;24.40;75.20;;;;;;4932458;29;20447;-90
2023/07/13 09:21:18;;;;;;;1.30;1.20;;;24.50;75.00;;;;;;4932963;29;20571;-90
2023/07/13 09:23:48;;;;;;;1.47;1.37;;;24.50;74.50;;;;;;4947713;29;20480;-89
2023/07/13 09:26:21;;;;;;;1.30;1.20;;;24.60;75.60;;;;;;4928004;29;20428;-88
2023/07/13 09:29:12;;;;;;;1.63;1.20;;;24.50;74.80;;;;;;4949212;29;20447;-87
2023/07/13 09:31:43;;;;;;;2.00;1.23;;;24.50;74.80;;;;;;4948499;28;20511;-89
2023/07/13 09:34:13;;;;;;;1.20;1.10;;;24.40;74.80;;;;;;4935729;29;20514;-90
2023/07/13 09:36:39;;;;;;;1.13;1.13;;;24.40;75.00;;;;;;4953640;29;20986;-89
2023/07/13 09:39:27;;;;;;;1.70;1.20;;;24.50;75.80;;;;;;4952610;29;20447;-90
2023/07/13 09:42:22;;;;;;;1.73;1.60;;;24.70;75.10;;;;;;4950634;29;20533;-90
2023/07/13 09:44:48;;;;;;;1.83;1.70;;;24.80;74.70;;;;;;4948091;29;20440;-88
2023/07/13 09:47:26;;;;;;;1.30;1.20;;;24.90;74.40;;;;;;4954456;29;20431;-90
2023/07/13 09:49:58;;;;;;;1.83;1.00;;;25.10;74.50;;;;;;4949842;29;20439;-89
2023/07/13 09:52:28;;;;;;;1.23;1.10;;;25.10;72.40;;;;;;4953199;28;20446;-89
2023/07/13 09:54:59;;;;;;;3.80;1.50;;;25.10;73.30;;;;;;4935235;29;20444;-91
2023/07/13 09:57:27;;;;;;;1.40;1.27;;;25.10;73.10;;;;;;4934339;29;20450;-89
2023/07/13 09:59:58;;;;;;;1.97;1.77;;;25.10;73.20;;;;;;4945989;29;20444;-90
2023/07/13 10:02:27;;;;;;;2.60;1.13;;;25.00;73.70;;;;;;4949847;28;20855;-91
2023/07/13 10:05:10;;;;;;;2.23;2.03;;;25.00;74.30;;;;;;4934964;29;20527;-91
2023/07/13 10:07:46;;;;;;;8.17;2.10;;;25.10;73.80;;;;;;4950041;28;20435;-89
2023/07/13 10:10:23;;;;;;;2.70;1.17;;;25.30;72.10;;;;;;4947488;29;20523;-91
2023/07/13 10:12:58;;;;;;;1.43;1.33;;;25.40;72.40;;;;;;4950980;28;21036;-87
2023/07/13 10:15:27;;;;;;;1.17;1.07;;;25.40;72.50;;;;;;4952317;29;20503;-89
2023/07/13 10:17:57;;;;;;;5.30;1.30;;;25.40;73.10;;;;;;4931046;29;20432;-89
2023/07/13 10:20:29;;;;;;;1.37;1.30;;;25.40;72.50;;;;;;4952235;29;20431;-91
2023/07/13 10:23:07;;;;;;;1.23;1.23;;;25.40;72.20;;;;;;4953269;29;20997;-90
2023/07/13 10:25:39;;;;;;;2.10;1.80;;;25.40;72.00;;;;;;4929482;29;20455;-89
2023/07/13 10:28:35;;;;;;;1.83;1.40;;;25.40;72.50;;;;;;4951744;29;20438;-89
2023/07/13 10:31:15;;;;;;;2.40;1.27;;;25.30;72.80;;;;;;4952455;28;20455;-89
2023/07/13 10:33:49;;;;;;;1.40;1.40;;;25.30;72.20;;;;;;4953432;29;20443;-92
2023/07/13 10:36:38;;;;;;;2.00;1.37;;;25.20;72.00;;;;;;4954005;29;20458;-89
2023/07/13 10:39:13;;;;;;;1.30;1.20;;;25.10;72.40;;;;;;4948900;29;20443;-89
2023/07/13 10:41:42;;;;;;;1.27;1.00;;;25.10;73.20;;;;;;4947873;28;21024;-88
2023/07/13 10:44:26;;;;;;;1.73;1.67;;;25.10;73.40;;;;;;4943725;28;20572;-90
2023/07/13 10:47:06;;;;;;;1.37;1.27;;;25.20;72.60;;;;;;4932525;29;20440;-88
2023/07/13 10:49:41;;;;;;;1.50;1.40;;;25.40;72.80;;;;;;4944914;29;20451;-88
2023/07/13 10:52:37;;;;;;;4.30;2.07;;;25.50;73.60;;;;;;4950197;28;20951;-90
2023/07/13 10:55:03;;;;;;;1.17;1.10;;;25.60;73.00;;;;;;4932582;29;20483;-89
2023/07/13 10:57:28;;;;;;;1.50;1.40;;;25.70;72.70;;;;;;4950360;28;20515;-89
2023/07/13 11:00:17;;;;;;;1.27;1.20;;;25.90;72.90;;;;;;4949343;29;20626;-89
2023/07/13 11:02:56;;;;;;;3.37;1.60;;;26.00;71.80;;;;;;4931045;29;20690;-89
2023/07/13 11:05:24;;;;;;;2.03;1.30;;;26.10;70.80;;;;;;4939138;29;20425;-90
2023/07/13 11:08:03;;;;;;;1.07;1.07;;;26.00;70.90;;;;;;4946834;29;20424;-90
2023/07/13 11:10:50;;;;;;;1.17;0.93;;;25.90;70.10;;;;;;4922235;29;20424;-89
2023/07/13 11:13:34;;;;;;;4.80;1.20;;;25.80;70.50;;;;;;4931838;29;20431;-88
2023/07/13 11:16:00;;;;;;;1.10;1.00;;;25.80;70.20;;;;;;4930659;29;20461;-90
2023/07/13 11:18:25;;;;;;;1.30;1.20;;;25.80;70.50;;;;;;4943527;29;20463;-89
2023/07/13 11:21:11;;;;;;;1.13;1.03;;;25.80;71.90;;;;;;4926647;29;20208;-89
2023/07/13 11:23:42;;;;;;;1.67;1.40;;;26.00;71.30;;;;;;4944403;29;20721;-90
2023/07/13 11:26:41;;;;;;;1.07;1.00;;;26.10;70.30;;;;;;4939547;29;20420;-89
2023/07/13 11:29:37;;;;;;;1.30;1.07;;;26.30;72.10;;;;;;4940140;29;20463;-88
2023/07/13 11:32:30;;;;;;;1.30;1.20;;;26.50;69.80;;;;;;4948288;28;20471;-89
2023/07/13 11:34:55;;;;;;;1.73;1.33;;;26.50;69.50;;;;;;4930639;29;20540;-90
2023/07/13 11:37:23;;;;;;;0.97;0.87;;;26.40;68.70;;;;;;4938720;29;20525;-89
2023/07/13 11:39:51;;;;;;;1.73;1.70;;;26.20;69.40;;;;;;4946115;29;20209;-89
2023/07/13 11:42:18;;;;;;;1.07;0.97;;;26.20;68.10;;;;;;4945927;28;20456;-89
2023/07/13 11:44:48;;;;;;;5.40;2.83;;;26.30;66.50;;;;;;4938182;29;20514;-90
2023/07/13 11:47:21;;;;;;;3.50;1.87;;;26.40;69.20;;;;;;4942897;29;20528;-88
2023/07/13 11:49:53;;;;;;;1.10;1.03;;;26.60;68.20;;;;;;4941149;29;20416;-90
2023/07/13 11:52:35;;;;;;;2.20;1.10;;;26.80;67.80;;;;;;4929215;29;20543;-89
2023/07/13 11:55:08;;;;;;;1.37;1.27;;;26.90;67.90;;;;;;4914930;29;20424;-89
2023/07/13 11:57:41;;;;;;;1.40;1.13;;;26.90;68.10;;;;;;4930244;29;20792;-90
2023/07/13 12:00:16;;;;;;;2.20;1.67;;;26.70;68.40;;;;;;4937279;29;20528;-89
2023/07/13 12:02:49;;;;;;;1.43;1.33;;;26.50;68.80;;;;;;4923096;29;20491;-88
2023/07/13 12:05:17;;;;;;;1.03;0.93;;;26.30;68.50;;;;;;4945632;29;20942;-90
2023/07/13 12:07:44;;;;;;;1.43;1.40;;;26.20;70.00;;;;;;4936725;29;20423;-88
2023/07/13 12:10:12;;;;;;;1.20;1.10;;;26.10;68.70;;;;;;4940409;29;20507;-89
2023/07/13 12:12:45;;;;;;;1.07;1.03;;;26.00;68.00;;;;;;4925454;29;20454;-89
2023/07/13 12:15:12;;;;;;;1.13;1.03;;;26.10;69.10;;;;;;4941317;29;20954;-90
2023/07/13 12:17:38;;;;;;;1.00;1.00;;;26.20;68.40;;;;;;4929140;29;20929;-89
2023/07/13 12:20:24;;;;;;;1.20;1.10;;;26.30;68.60;;;;;;4931119;29;20510;-90
2023/07/13 12:22:50;;;;;;;1.10;1.00;;;26.50;66.50;;;;;;4937172;29;20203;-89
2023/07/13 12:25:18;;;;;;;1.17;1.07;;;26.70;66.30;;;;;;4932898;29;20467;-88
2023/07/13 12:27:48;;;;;;;1.53;1.10;;;26.90;66.40;;;;;;4941456;29;20424;-89
2023/07/13 12:30:31;;;;;;;1.17;1.07;;;27.00;67.50;;;;;;4940916;28;20966;-88
2023/07/13 12:33:00;;;;;;;1.20;1.10;;;27.20;66.00;;;;;;4949561;29;20482;-88
2023/07/13 12:35:29;;;;;;;0.83;0.73;;;27.30;66.10;;;;;;4941053;29;20475;-89
2023/07/13 12:37:57;;;;;;;1.40;1.30;;;27.20;65.00;;;;;;4947581;29;20424;-90
2023/07/13 12:40:34;;;;;;;1.73;1.47;;;27.00;64.60;;;;;;4931457;29;20440;-88
2023/07/13 12:43:08;;;;;;;1.57;1.33;;;26.80;64.80;;;;;;4945067;29;20467;-89
2023/07/13 12:45:37;;;;;;;2.23;1.40;;;26.60;65.60;;;;;;4946921;29;20462;-89
2023/07/13 12:48:18;;;;;;;1.00;0.90;;;26.50;65.40;;;;;;4948370;29;20424;-90
2023/07/13 12:50:48;;;;;;;1.10;1.00;;;26.50;66.00;;;;;;4932307;29;20439;-89
2023/07/13 12:53:20;;;;;;;1.00;0.90;;;26.50;66.20;;;;;;4948587;29;20430;-89
2023/07/13 12:55:48;;;;;;;6.63;2.30;;;26.60;65.80;;;;;;4948972;29;20514;-89
2023/07/13 12:58:27;;;;;;;1.70;1.60;;;26.70;66.60;;;;;;4948458;29;20507;-89
2023/07/13 13:01:08;;;;;;;5.23;2.10;;;27.00;66.40;;;;;;4947811;28;20989;-89
2023/07/13 13:03:57;;;;;;;1.33;1.23;;;27.20;64.80;;;;;;4942490;29;20478;-88
2023/07/13 13:06:27;;;;;;;1.00;0.90;;;27.40;65.30;;;;;;4949064;29;20511;-90
2023/07/13 13:08:55;;;;;;;1.50;1.40;;;27.50;65.90;;;;;;4936657;29;20419;-87
2023/07/13 13:11:23;;;;;;;1.53;0.90;;;27.70;65.60;;;;;;4973152;23;20493;-72
2023/07/13 13:13:50;;;;;;;1.10;1.00;;;27.80;65.00;;;;;;4990449;28;20470;-67
2023/07/13 13:16:34;;;;;;;1.20;1.10;;;27.90;64.50;;;;;;4999634;28;20420;-78
2023/07/13 13:19:15;;;;;;;1.00;0.90;;;28.00;63.60;;;;;;5006615;28;20424;-71
2023/07/13 13:21:42;;;;;;;0.80;0.70;;;28.00;63.70;;;;;;5010242;28;20451;-70
2023/07/13 13:24:17;;;;;;;0.90;0.80;;;28.00;64.40;;;;;;5002393;28;20518;-66
2023/07/13 13:26:45;;;;;;;1.30;1.20;;;28.00;62.80;;;;;;5006487;28;20415;-74
2023/07/13 13:29:16;;;;;;;1.00;0.90;;;28.00;63.60;;;;;;5002021;28;20412;-73
2023/07/13 13:31:44;;;;;;;2.67;1.40;;;28.10;65.10;;;;;;4998625;28;20521;-73
2023/07/13 13:34:11;;;;;;;1.53;1.23;;;28.30;63.90;;;;;;5008016;28;20782;-74
2023/07/13 13:36:38;;;;;;;2.50;1.10;;;28.40;62.60;;;;;;5008804;28;20737;-69
2023/07/13 13:39:16;;;;;;;3.03;1.30;;;28.40;62.80;;;;;;5002768;28;20510;-74
2023/07/13 13:41:42;;;;;;;1.50;1.30;;;28.40;62.80;;;;;;5004691;28;20453;-71
2023/07/13 13:44:10;;;;;;;1.63;1.17;;;28.40;63.00;;;;;;5002133;28;20453;-73
2023/07/13 13:46:36;;;;;;;0.80;0.80;;;28.30;64.50;;;;;;5009774;28;20204;-73
2023/07/13 13:49:02;;;;;;;1.03;1.00;;;28.40;64.80;;;;;;4994095;28;20448;-73
2023/07/13 13:51:29;;;;;;;1.10;1.00;;;28.30;64.30;;;;;;5002386;28;20451;-68
2023/07/13 13:53:54;;;;;;;1.07;0.90;;;28.40;64.40;;;;;;4994789;28;20924;-71
2023/07/13 13:56:21;;;;;;;0.90;0.80;;;28.40;64.20;;;;;;4990313;28;20431;-71
2023/07/13 13:58:47;;;;;;;1.10;1.00;;;28.50;63.90;;;;;;5000461;28;20264;-66
2023/07/13 14:01:17;;;;;;;0.97;0.90;;;28.50;64.40;;;;;;4999899;28;20547;-73
2023/07/13 14:03:43;;;;;;;2.53;1.40;;;28.50;64.50;;;;;;5005840;28;20526;-67
2023/07/13 14:06:15;;;;;;;0.87;0.80;;;28.60;64.50;;;;;;5007361;28;20439;-69
2023/07/13 14:08:41;;;;;;;0.97;0.90;;;28.60;62.70;;;;;;4997621;28;20490;-76
2023/07/13 14:11:12;;;;;;;5.30;1.53;;;28.70;64.00;;;;;;5001001;28;20457;-77
2023/07/13 14:13:46;;;;;;;1.20;1.10;;;28.80;64.40;;;;;;5009428;28;20420;-74
2023/07/13 14:16:18;;;;;;;4.00;0.80;;;28.80;63.90;;;;;;5007695;28;20423;-72
2023/07/13 14:18:45;;;;;;;1.00;0.90;;;28.80;63.40;;;;;;4997929;28;20425;-73
2023/07/13 14:21:18;;;;;;;1.10;0.87;;;28.70;64.00;;;;;;5000406;28;20787;-74
2023/07/13 14:23:46;;;;;;;1.37;0.97;;;28.70;63.30;;;;;;5002682;28;20471;-74
2023/07/13 14:26:14;;;;;;;1.07;0.97;;;28.70;63.40;;;;;;4999112;28;20516;-74
2023/07/13 14:28:47;;;;;;;0.90;0.80;;;28.60;64.20;;;;;;5002864;28;20422;-76
2023/07/13 14:31:15;;;;;;;4.30;1.47;;;28.70;63.30;;;;;;5008576;28;20439;-74
2023/07/13 14:33:41;;;;;;;0.90;0.83;;;28.60;63.90;;;;;;4995266;28;20858;-75
2023/07/13 14:36:21;;;;;;;2.07;1.67;;;28.60;64.40;;;;;;5000396;28;20524;-73
2023/07/13 14:38:46;;;;;;;2.50;1.27;;;28.50;63.20;;;;;;5010785;28;20264;-76
2023/07/13 14:41:28;;;;;;;0.80;0.70;;;28.60;64.40;;;;;;5002081;28;20588;-73
2023/07/13 14:43:54;;;;;;;0.97;0.90;;;28.80;64.70;;;;;;4976686;28;20352;-71
2023/07/13 14:46:29;;;;;;;1.47;1.37;;;29.00;63.50;;;;;;5003531;28;20480;-71
2023/07/13 14:49:04;;;;;;;1.37;1.07;;;29.10;63.20;;;;;;4996266;28;20425;-75
2023/07/13 14:51:31;;;;;;;1.10;1.00;;;29.10;63.70;;;;;;4993249;28;20450;-73
2023/07/13 14:53:58;;;;;;;1.27;0.80;;;29.20;63.00;;;;;;5002489;28;20787;-75
2023/07/13 14:56:25;;;;;;;1.00;0.90;;;29.30;63.10;;;;;;4993762;28;20459;-74
2023/07/13 14:58:52;;;;;;;3.27;1.83;;;29.40;62.30;;;;;;5009014;28;20451;-74
2023/07/13 15:01:18;;;;;;;1.00;0.90;;;29.40;62.10;;;;;;5001782;28;21042;-74
2023/07/13 15:03:47;;;;;;;1.03;0.93;;;29.30;62.20;;;;;;4997069;28;20476;-72
2023/07/13 15:06:13;;;;;;;0.80;0.70;;;29.20;63.20;;;;;;5006266;28;20196;-77
2023/07/13 15:08:40;;;;;;;1.67;1.30;;;29.30;63.30;;;;;;5000335;28;20427;-74
2023/07/13 15:11:07;;;;;;;1.20;1.10;;;29.20;61.90;;;;;;5008099;28;20463;-74
2023/07/13 15:13:33;;;;;;;0.80;0.70;;;29.00;61.40;;;;;;5008542;28;20428;-73
2023/07/13 15:15:59;;;;;;;0.90;0.80;;;28.80;61.60;;;;;;5008120;28;20507;-74
2023/07/13 15:18:27;;;;;;;1.10;1.00;;;28.50;62.00;;;;;;4990425;28;21119;-77
2023/07/13 15:20:55;;;;;;;0.97;0.80;;;28.30;62.00;;;;;;4998354;28;20629;-74
2023/07/13 15:23:25;;;;;;;0.97;0.87;;;28.10;62.20;;;;;;5001223;28;20460;-73
2023/07/13 15:25:52;;;;;;;1.07;0.90;;;28.00;63.20;;;;;;5008514;28;20771;-73
2023/07/13 15:28:17;;;;;;;1.87;1.77;;;27.90;62.80;;;;;;5008294;28;21016;-73
2023/07/13 15:30:47;;;;;;;3.97;0.80;;;27.90;63.00;;;;;;5002415;28;20522;-76
2023/07/13 15:33:27;;;;;;;1.17;1.17;;;28.00;62.90;;;;;;5000781;28;20190;-74
2023/07/13 15:35:54;;;;;;;0.97;0.90;;;28.30;64.50;;;;;;4999524;28;20433;-74
2023/07/13 15:38:25;;;;;;;1.00;0.90;;;28.50;63.20;;;;;;4995310;28;20436;-72
2023/07/13 15:40:52;;;;;;;1.77;1.20;;;28.70;64.70;;;;;;5001654;28;20455;-75
2023/07/13 15:43:19;;;;;;;0.93;0.83;;;28.90;64.40;;;;;;5004520;28;20471;-75
2023/07/13 15:45:46;;;;;;;0.90;0.80;;;29.00;61.90;;;;;;4988738;28;20901;-72
2023/07/13 15:48:14;;;;;;;1.73;0.90;;;28.90;62.50;;;;;;5004884;28;20911;-75
2023/07/13 15:50:50;;;;;;;1.20;1.03;;;28.90;61.70;;;;;;4996193;28;20809;-74
2023/07/13 15:53:24;;;;;;;1.10;1.00;;;28.60;62.30;;;;;;4997943;28;20428;-74
2023/07/13 15:55:51;;;;;;;6.07;1.83;;;28.40;62.70;;;;;;4998191;28;20416;-74
2023/07/13 15:58:19;;;;;;;0.90;0.80;;;28.10;63.00;;;;;;5004021;28;20424;-73
2023/07/13 16:00:45;;;;;;;2.83;1.90;;;28.00;63.80;;;;;;5001667;28;20455;-74
2023/07/13 16:03:11;;;;;;;1.00;0.90;;;27.90;63.90;;;;;;5007005;28;20455;-74
2023/07/13 16:05:38;;;;;;;0.87;0.87;;;27.80;63.80;;;;;;5009286;28;20204;-74
2023/07/13 16:08:05;;;;;;;1.43;1.10;;;27.60;63.60;;;;;;5008844;28;20431;-73
2023/07/13 16:10:40;;;;;;;1.43;1.20;;;27.50;64.30;;;;;;4997215;28;20520;-76
2023/07/13 16:13:14;;;;;;;1.10;1.00;;;27.40;64.90;;;;;;5004135;28;20501;-73
2023/07/13 16:15:44;;;;;;;3.03;1.63;;;27.30;64.90;;;;;;4990912;28;20413;-74
2023/07/13 16:18:16;;;;;;;1.10;1.00;;;27.20;64.80;;;;;;4989911;28;21023;-75
2023/07/13 16:20:49;;;;;;;1.57;1.47;;;27.20;64.70;;;;;;5039980;23;20493;-89
2023/07/13 16:23:17;;;;;;;1.40;1.30;;;27.00;64.50;;;;;;4995879;28;20560;-91
2023/07/13 16:25:45;;;;;;;2.43;1.30;;;26.90;65.20;;;;;;4996491;28;20481;-87
2023/07/13 16:28:12;;;;;;;1.13;1.03;;;26.90;65.60;;;;;;4990351;23;20596;-74
2023/07/13 16:30:38;;;;;;;1.10;1.00;;;27.00;65.90;;;;;;4963096;28;20442;-76
2023/07/13 16:33:06;;;;;;;0.90;0.80;;;27.10;65.30;;;;;;4966822;28;20446;-75
2023/07/13 16:35:37;;;;;;;0.90;0.90;;;27.20;64.90;;;;;;4967413;28;20433;-76
2023/07/13 16:38:09;;;;;;;3.07;1.40;;;27.10;65.50;;;;;;4961130;28;20537;-76
2023/07/13 16:40:35;;;;;;;2.70;1.23;;;27.10;65.60;;;;;;4954781;28;20553;-75
2023/07/13 16:43:04;;;;;;;0.90;0.80;;;26.90;65.60;;;;;;4966724;28;20548;-74
2023/07/13 16:45:33;;;;;;;1.23;1.17;;;26.70;66.20;;;;;;4968388;28;20713;-74
2023/07/13 16:48:00;;;;;;;1.13;0.80;;;26.70;66.30;;;;;;4948833;28;20891;-74
2023/07/13 16:50:33;;;;;;;1.90;1.53;;;26.70;66.50;;;;;;4966059;28;20441;-72
2023/07/13 16:53:05;;;;;;;1.03;0.93;;;26.80;66.50;;;;;;4952055;28;20463;-77
2023/07/13 16:55:31;;;;;;;1.27;1.17;;;27.00;66.80;;;;;;4967671;28;20426;-80
2023/07/13 16:58:01;;;;;;;1.37;1.30;;;27.10;66.30;;;;;;4960800;28;20816;-78
2023/07/13 17:00:28;;;;;;;1.10;1.00;;;27.10;66.80;;;;;;4943402;28;20249;-74
2023/07/13 17:03:05;;;;;;;1.10;1.00;;;27.00;66.50;;;;;;4963382;28;20469;-78
2023/07/13 17:05:35;;;;;;;0.87;0.83;;;26.90;66.30;;;;;;4966080;28;20964;-76
2023/07/13 17:08:10;;;;;;;1.53;1.20;;;26.70;66.80;;;;;;4968111;28;20492;-75
2023/07/13 17:10:38;;;;;;;1.53;1.20;;;26.50;66.80;;;;;;4956578;28;20441;-75